Star Epsilon — V7NZ7 — position and weather

sailwx.info

Track history (hours):
 
Tides and Currents Weather Stations Pressure Air Temp Water Temp Dewpoint Dewpoint Depression Visibility Wind Speed Wind Dir Waves Ship Positions

Star Epsilon

Last reported at 2017-Oct-11 00:00 UTC. Time now 2017-Oct-19 16:46 UTC.
Position N 35°51' W 010°49'.
Warning: this ship's position is 8 days out of date.

Length 189 m; draft 11.9 m.

Type: Ship. MMSI: 538003043.

Date/timePositionNaut miles runAvg speedWind from/ knotsBaromVisibWave heightAir tempDewpointWater temp
2017-Oct-11 00:00N 35°51' W 010°49'612.9
2017-Oct-10 23:30N 35°51' W 010°41'612.6
2017-Oct-10 23:00N 35°52' W 010°33'612.6
2017-Oct-10 22:31N 35°53' W 010°26'612.9
2017-Oct-10 22:01N 35°53' W 010°18'612.7
2017-Oct-10 21:30N 35°54' W 010°10'612.5
2017-Oct-10 21:01N 35°54' W 010°02'612.7
2017-Oct-10 20:30N 35°54' W 009°54'612.8
2017-Oct-10 20:01N 35°54' W 009°46'612.5
2017-Oct-10 19:31N 35°54' W 009°39'612.4
2017-Oct-10 19:00N 35°54' W 009°31'612.2
2017-Oct-10 18:31N 35°54' W 009°24'612.3
2017-Oct-10 18:00N 35°53' W 009°16'612.1
2017-Oct-10 17:30N 35°53' W 009°09'612.1
2017-Oct-10 17:01N 35°53' W 009°01'611.9
2017-Oct-10 16:30N 35°54' W 008°54'612.0
2017-Oct-10 15:59N 35°54' W 008°46'612.3
2017-Oct-10 15:30N 35°55' W 008°39'612.0
2017-Oct-10 15:00N 35°56' W 008°31'1312.3
2017-Oct-10 13:59N 35°56' W 008°16'612.4
2017-Oct-10 13:30N 35°56' W 008°09'612.2
2017-Oct-10 13:00N 35°57' W 008°01'612.3
2017-Oct-10 12:31N 35°57' W 007°54'611.9
2017-Oct-10 12:00N 35°57' W 007°46'712.2
2017-Oct-10 11:28N 35°57' W 007°38'612.1
2017-Oct-10 11:00N 35°57' W 007°31'612.0
2017-Oct-10 10:31N 35°57' W 007°24'612.0
2017-Oct-10 10:00N 35°57' W 007°16'611.9
2017-Oct-10 09:30N 35°57' W 007°09'612.3
2017-Oct-10 09:00N 35°58' W 007°01'612.6
2017-Oct-10 08:30N 35°58' W 006°54'612.8
2017-Oct-10 08:00N 35°58' W 006°46'912.5
2017-Oct-10 07:17N 35°57' W 006°34'312.0
2017-Oct-10 07:00N 35°57' W 006°30'611.5
2017-Oct-10 06:30N 35°57' W 006°23'510.8
2017-Oct-10 05:59N 35°58' W 006°16'510.7
2017-Oct-10 05:30N 35°58' W 006°10'26211.5
2017-Oct-09 06:43N 36°30' W 000°48'611.8
2017-Oct-09 06:14N 36°31' W 000°41'4111.9
2017-Oct-09 02:49N 36°42' E 000°08'512.0
2017-Oct-09 02:25N 36°44' E 000°13'511.4
2017-Oct-09 02:01N 36°46' E 000°19'  
2017-Oct-06 05:16N 36°26' E 014°39'45711.5
2017-Oct-04 13:25N 37°32' E 024°05'15 4.4
2017-Oct-04 09:52N 37°45' E 024°14'1613.2
2017-Oct-04 08:37N 37°54' E 024°32'27311.8
2017-Oct-03 09:33N 40°57' E 028°54'4 5.3
2017-Oct-03 08:46N 40°59' E 028°59'456 9.0
2017-Oct-01 05:56N 43°54' E 038°29'512.0
2017-Oct-01 05:30N 43°57' E 038°35'612.0
2017-Oct-01 05:00N 43°59' E 038°43'612.1
2017-Oct-01 04:30N 44°01' E 038°51'612.3
2017-Oct-01 04:00N 44°02' E 038°59'4 8.9
2017-Oct-01 03:30N 44°05' E 039°04'1 1.1
2017-Oct-01 02:59N 44°06' E 039°04'  
Track history (hours):
 
Tides and Currents Weather Stations Pressure Air Temp Water Temp Dewpoint Dewpoint Depression Visibility Wind Speed Wind Dir Waves Ship Positions

Star Epsilon

Last reported at 2017-Oct-11 00:00 UTC. Time now 2017-Oct-19 16:46 UTC.
Position N 35°51' W 010°49'.
Warning: this ship's position is 8 days out of date.

Length 189 m; draft 11.9 m.

Type: Ship. MMSI: 538003043.

Date/timePositionNaut miles runAvg speedWind from/ knotsBaromVisibWave heightAir tempDewpointWater temp
2017-Oct-11 00:00N 35°51' W 010°49'612.9
2017-Oct-10 23:30N 35°51' W 010°41'612.6
2017-Oct-10 23:00N 35°52' W 010°33'612.6
2017-Oct-10 22:31N 35°53' W 010°26'612.9
2017-Oct-10 22:01N 35°53' W 010°18'612.7
2017-Oct-10 21:30N 35°54' W 010°10'612.5
2017-Oct-10 21:01N 35°54' W 010°02'612.7
2017-Oct-10 20:30N 35°54' W 009°54'612.8
2017-Oct-10 20:01N 35°54' W 009°46'612.5
2017-Oct-10 19:31N 35°54' W 009°39'612.4
2017-Oct-10 19:00N 35°54' W 009°31'612.2
2017-Oct-10 18:31N 35°54' W 009°24'612.3
2017-Oct-10 18:00N 35°53' W 009°16'612.1
2017-Oct-10 17:30N 35°53' W 009°09'612.1
2017-Oct-10 17:01N 35°53' W 009°01'611.9
2017-Oct-10 16:30N 35°54' W 008°54'612.0
2017-Oct-10 15:59N 35°54' W 008°46'612.3
2017-Oct-10 15:30N 35°55' W 008°39'612.0
2017-Oct-10 15:00N 35°56' W 008°31'1312.3
2017-Oct-10 13:59N 35°56' W 008°16'612.4
2017-Oct-10 13:30N 35°56' W 008°09'612.2
2017-Oct-10 13:00N 35°57' W 008°01'612.3
2017-Oct-10 12:31N 35°57' W 007°54'611.9
2017-Oct-10 12:00N 35°57' W 007°46'712.2
2017-Oct-10 11:28N 35°57' W 007°38'612.1
2017-Oct-10 11:00N 35°57' W 007°31'612.0
2017-Oct-10 10:31N 35°57' W 007°24'612.0
2017-Oct-10 10:00N 35°57' W 007°16'611.9
2017-Oct-10 09:30N 35°57' W 007°09'612.3
2017-Oct-10 09:00N 35°58' W 007°01'612.6
2017-Oct-10 08:30N 35°58' W 006°54'612.8
2017-Oct-10 08:00N 35°58' W 006°46'912.5
2017-Oct-10 07:17N 35°57' W 006°34'312.0
2017-Oct-10 07:00N 35°57' W 006°30'611.5
2017-Oct-10 06:30N 35°57' W 006°23'510.8
2017-Oct-10 05:59N 35°58' W 006°16'510.7
2017-Oct-10 05:30N 35°58' W 006°10'26211.5
2017-Oct-09 06:43N 36°30' W 000°48'611.8
2017-Oct-09 06:14N 36°31' W 000°41'4111.9
2017-Oct-09 02:49N 36°42' E 000°08'512.0
2017-Oct-09 02:25N 36°44' E 000°13'511.4
2017-Oct-09 02:01N 36°46' E 000°19'  
2017-Oct-06 05:16N 36°26' E 014°39'45711.5
2017-Oct-04 13:25N 37°32' E 024°05'15 4.4
2017-Oct-04 09:52N 37°45' E 024°14'1613.2
2017-Oct-04 08:37N 37°54' E 024°32'27311.8
2017-Oct-03 09:33N 40°57' E 028°54'4 5.3
2017-Oct-03 08:46N 40°59' E 028°59'456 9.0
2017-Oct-01 05:56N 43°54' E 038°29'512.0
2017-Oct-01 05:30N 43°57' E 038°35'612.0
2017-Oct-01 05:00N 43°59' E 038°43'612.1
2017-Oct-01 04:30N 44°01' E 038°51'612.3
2017-Oct-01 04:00N 44°02' E 038°59'4 8.9
2017-Oct-01 03:30N 44°05' E 039°04'1 1.1
2017-Oct-01 02:59N 44°06' E 039°04'  

Dump ship's entire track history